ADDS METAR Data INFO
IDs: Format: Raw Decoded Include TAF

Data at: 1246 UTC 19 Oct 2017

KCKN 191234Z AUTO 16008KT 10SM CLR 00/M04 A2989 RMK AO2
KCKN 191215Z AUTO 15008KT 10SM CLR 00/M04 A2990 RMK AO2
KCKN 191154Z AUTO 16006KT 10SM CLR 01/M04 A2991 RMK AO2
KCKN 191134Z AUTO 16009KT 10SM CLR 00/M04 A2991 RMK AO2
KCKN 191115Z AUTO 15007KT 10SM CLR 01/M04 A2992 RMK AO2
KCKN 191054Z AUTO 14007KT 10SM CLR 01/M04 A2991 RMK AO2
KCKN 191035Z AUTO 14007KT 10SM CLR 01/M04 A2991 RMK AO2
KCKN 191014Z AUTO 15006KT 10SM CLR 01/M04 A2992 RMK AO2
KCKN 190955Z AUTO 16007KT 10SM CLR 01/M04 A2992 RMK AO2
KCKN 190935Z AUTO 19005KT 10SM CLR 01/M04 A2992 RMK AO2
KCKN 190914Z AUTO 18007KT 10SM CLR 02/M04 A2992 RMK AO2
KCKN 190855Z AUTO 21004KT 10SM CLR 03/M04 A2992 RMK AO2
KCKN 190834Z AUTO 18003KT 10SM CLR 03/M04 A2993 RMK AO2
KCKN 190814Z AUTO 00000KT 10SM CLR 04/M05 A2993 RMK AO2
KCKN 190755Z AUTO 22004KT 10SM CLR 03/M05 A2993 RMK AO2
KCKN 190734Z AUTO 21005KT 10SM CLR 04/M05 A2993 RMK AO2
KCKN 190715Z AUTO 23007KT 10SM CLR 04/M05 A2992 RMK AO2
KCKN 190655Z AUTO 23008KT 10SM CLR 03/M05 A2993 RMK AO2
KCKN 190634Z AUTO 25006KT 10SM CLR 05/M05 A2991 RMK AO2
KCKN 190615Z AUTO 23009KT 10SM CLR 04/M06 A2991 RMK AO2
KCKN 190555Z AUTO 20008KT 10SM CLR 03/M06 A2991 RMK AO2
KCKN 190534Z AUTO 25007KT 10SM CLR 07/M05 A2990 RMK AO2
KCKN 190515Z AUTO 26008KT 10SM CLR 07/M05 A2990 RMK AO2
KCKN 190454Z AUTO 27008KT 10SM CLR 08/M05 A2990 RMK AO2
KCKN 190435Z AUTO 27012KT 10SM CLR 08/M05 A2989 RMK AO2
KCKN 190415Z AUTO 27010KT 10SM CLR 08/M05 A2990 RMK AO2
KCKN 190354Z AUTO 27012KT 10SM CLR 08/M06 A2990 RMK AO2
KCKN 190335Z AUTO 27010KT 10SM CLR 08/M06 A2990 RMK AO2
KCKN 190315Z AUTO 26011KT 10SM CLR 08/M06 A2990 RMK AO2
KCKN 190254Z AUTO 26011KT 10SM CLR 09/M07 A2990 RMK AO2
KCKN 190235Z AUTO 26011KT 10SM CLR 09/M07 A2989 RMK AO2
KCKN 190214Z AUTO 26012KT 10SM CLR 09/M07 A2989 RMK AO2
KCKN 190154Z AUTO 26011KT 10SM CLR 09/M08 A2989 RMK AO2
KCKN 190135Z AUTO 27012KT 10SM CLR 11/M08 A2988 RMK AO2
KCKN 190114Z AUTO 27014KT 10SM CLR 11/M08 A2987 RMK AO2
KCKN 190054Z AUTO 26017KT 10SM CLR 11/M08 A2986 RMK AO2
KCKN 190035Z AUTO 26015KT 10SM CLR 12/M08 A2987 RMK AO2
KCKN 190014Z AUTO 27018G22KT 10SM CLR 12/M08 A2987 RMK AO2
KCKN 182355Z AUTO 28020G23KT 10SM CLR 12/M08 A2986 RMK AO2
KCKN 182335Z AUTO 28018G24KT 10SM CLR 12/M09 A2986 RMK AO2
KCKN 182315Z AUTO 28022G29KT 10SM CLR 13/M09 A2985 RMK AO2
KCKN 182255Z AUTO 28019G25KT 10SM CLR 14/M09 A2984 RMK AO2
KCKN 182234Z AUTO 29024G33KT 10SM CLR 14/M11 A2983 RMK AO2
KCKN 182215Z AUTO 29028G31KT 10SM CLR 15/M10 A2983 RMK AO2
KCKN 182155Z AUTO 29025G31KT 10SM CLR 15/M10 A2982 RMK AO2
KCKN 182134Z AUTO 29025G32KT 10SM CLR 16/M09 A2982 RMK AO2
KCKN 182115Z AUTO 28025G30KT 10SM CLR 16/M09 A2982 RMK AO2
KCKN 182054Z AUTO 29026G35KT 10SM CLR 16/M10 A2982 RMK AO2
KCKN 182035Z AUTO 27024G30KT 10SM CLR 16/M08 A2981 RMK AO2
KCKN 182015Z AUTO 30024G36KT 10SM CLR 16/M11 A2980 RMK AO2
KCKN 181954Z AUTO 29027G34KT 10SM CLR 16/M09 A2980 RMK AO2
KCKN 181935Z AUTO 29028G32KT 10SM CLR 16/M10 A2980 RMK AO2
KCKN 181914Z AUTO 29026KT 10SM CLR 16/M08 A2980 RMK AO2
KCKN 181855Z AUTO 29022G32KT 10SM CLR 16/M08 A2979 RMK AO2
KCKN 181835Z AUTO 29023G30KT 10SM CLR 16/M08 A2979 RMK AO2
KCKN 181814Z AUTO 29025G34KT 10SM CLR 16/M08 A2979 RMK AO2
KCKN 181755Z AUTO 29027G34KT 10SM CLR 16/M07 A2979 RMK AO2
KCKN 181734Z AUTO 29021G31KT 10SM CLR 15/M06 A2979 RMK AO2
KCKN 181714Z AUTO 30024G30KT 10SM CLR 14/M05 A2979 RMK AO2
KCKN 181655Z AUTO 29022G27KT 10SM CLR 14/M03 A2980 RMK AO2
KCKN 181634Z AUTO 28016KT 10SM CLR 12/M02 A2979 RMK AO2
KCKN 181615Z AUTO 28016KT 10SM CLR 12/M01 A2978 RMK AO2
KCKN 181554Z AUTO 29017G22KT 10SM CLR 12/M01 A2978 RMK AO2
KCKN 181534Z AUTO 30020G26KT 10SM CLR 12/00 A2977 RMK AO2
KCKN 181515Z AUTO 30021G29KT 10SM -DZ CLR 13/01 A2975 RMK AO2
KCKN 181454Z AUTO 30028G33KT 7SM -DZ CLR 14/02 A2974 RMK AO2
KCKN 181435Z AUTO 30022G25KT 10SM CLR 14/03 A2973 RMK AO2
KCKN 181414Z AUTO 29013KT 10SM CLR 12/03 A2971 RMK AO2
KCKN 181354Z AUTO 27008KT 10SM CLR 11/02 A2969 RMK AO2
KCKN 181335Z AUTO 27009KT 10SM CLR 11/02 A2968 RMK AO2
KCKN 181314Z AUTO 25008KT 10SM CLR 09/03 A2965 RMK AO2
KCKN 181255Z AUTO 22008KT 10SM CLR 09/04 A2964 RMK AO2
KCKN 181235Z AUTO 21008KT 10SM CLR 09/04 A2963 RMK AO2
KCKN 181214Z AUTO 22007KT 10SM CLR 10/04 A2963 RMK AO2
KCKN 181155Z AUTO 22009KT 10SM CLR 11/04 A2962 RMK AO2
KCKN 181134Z AUTO 23011KT 10SM CLR 11/04 A2961 RMK AO2
KCKN 181114Z AUTO 21011G16KT 10SM CLR 11/04 A2960 RMK AO2
KCKN 181054Z AUTO 22014G18KT 10SM CLR 12/04 A2960 RMK AO2
KCKN 181034Z AUTO 24010G15KT 10SM CLR 12/04 A2960 RMK AO2
KCKN 181015Z AUTO 23012G17KT 10SM CLR 11/04 A2959 RMK AO2
KCKN 180954Z AUTO 21017KT 10SM CLR 12/04 A2954 RMK AO2
KCKN 180935Z AUTO 19016KT 10SM CLR 12/04 A2953 RMK AO2
KCKN 180915Z AUTO 20017G22KT 10SM CLR 12/05 A2954 RMK AO2
KCKN 180854Z AUTO 20017KT 10SM CLR 12/05 A2955 RMK AO2
KCKN 180835Z AUTO 20016KT 10SM CLR 13/05 A2956 RMK AO2
KCKN 180814Z AUTO 20016KT 10SM CLR 13/05 A2957 RMK AO2
KCKN 180755Z AUTO 19013KT 10SM CLR 12/05 A2960 RMK AO2
KCKN 180735Z AUTO 19013KT 10SM CLR 12/05 A2960 RMK AO2
KCKN 180714Z AUTO 19013KT 10SM CLR 13/04 A2960 RMK AO2
KCKN 180655Z AUTO 19014KT 10SM CLR 13/04 A2960 RMK AO2
KCKN 180635Z AUTO 19014KT 10SM CLR 13/04 A2961 RMK AO2
KCKN 180614Z AUTO 19013KT 10SM CLR 13/04 A2961 RMK AO2
KCKN 180555Z AUTO 20014KT 10SM CLR 13/04 A2961 RMK AO2
KCKN 180534Z AUTO 20013KT 10SM CLR 13/04 A2962 RMK AO2
KCKN 180515Z AUTO 19013KT 10SM CLR 14/04 A2962 RMK AO2
KCKN 180455Z AUTO 20014KT 10SM CLR 14/04 A2962 RMK AO2
KCKN 180434Z AUTO 20011KT 10SM CLR 14/05 A2963 RMK AO2
KCKN 180415Z AUTO 20013KT 10SM CLR 15/05 A2964 RMK AO2
KCKN 180354Z AUTO 20014KT 10SM CLR 15/05 A2964 RMK AO2
KCKN 180334Z AUTO 20012KT 10SM CLR 16/05 A2964 RMK AO2
KCKN 180314Z AUTO 19013KT 10SM CLR 16/05 A2965 RMK AO2
KCKN 180255Z AUTO 19014KT 10SM CLR 16/05 A2965 RMK AO2
KCKN 180235Z AUTO 20015G18KT 10SM CLR 17/05 A2966 RMK AO2
KCKN 180214Z AUTO 20016KT 10SM CLR 17/05 A2966 RMK AO2
KCKN 180155Z AUTO 20014KT 10SM CLR 16/05 A2967 RMK AO2
KCKN 180134Z AUTO 19012KT 10SM CLR 16/05 A2967 RMK AO2
KCKN 180114Z AUTO 20012KT 10SM CLR 17/05 A2968 RMK AO2
KCKN 180055Z AUTO 20012KT 10SM CLR 18/05 A2968 RMK AO2